Terminal Aerodrome Forecast
Issued by NWS

Home | Current Version | Previous Version | Text Only | Print | Product List | Glossary On
Versions: 1 2 3 4 5 6 7 8 9 10 11 12 13 14 15
000
FTUS41 KPBZ 262326
TAFDUJ
TAF
KDUJ 262326Z 2700/2724 22006KT P6SM SCT130
     FM270800 20004KT 5SM BR BKN020
     FM271000 21003KT 4SM BR BKN008
     FM271300 23005KT P6SM BKN025
     FM271800 24005KT P6SM BKN050=

USA.gov is the U.S. government's official web portal to all federal, state and local government web resources and services.